Time;durP1;ratioP1;P1;durP2;ratioP2;P2;SDS_P1;SDS_P2;PMS_P1;PMS_P2;Temp;Humidity;BMP_temperature;BMP_pressure;BME280_temperature;BME280_humidity;BME280_pressure;Samples;Min_cycle;Max_cycle;Signal;HPM_P1;HPM_P2
2021/05/17 00:01:31;;;;;;;4.55;3.60;;;10.90;99.90;;;;;;5055471;28;20263;-65
2021/05/17 00:04:02;;;;;;;5.30;3.42;;;10.90;99.90;;;;;;5053948;28;20210;-65
2021/05/17 00:06:31;;;;;;;4.03;3.25;;;11.00;99.90;;;;;;5055895;28;20219;-65
2021/05/17 00:08:58;;;;;;;4.93;3.65;;;11.20;99.90;;;;;;5058431;28;20212;-66
2021/05/17 00:11:26;;;;;;;6.78;3.60;;;11.30;99.90;;;;;;5057675;28;20228;-65
2021/05/17 00:13:53;;;;;;;5.15;3.90;;;11.40;99.90;;;;;;5058042;28;20246;-65
2021/05/17 00:16:20;;;;;;;3.70;3.40;;;11.60;99.90;;;;;;5055085;28;20238;-65
2021/05/17 00:18:47;;;;;;;4.95;4.00;;;11.70;99.90;;;;;;5056233;28;20210;-65
2021/05/17 00:21:15;;;;;;;3.78;3.30;;;11.70;99.90;;;;;;5057432;28;20207;-66
2021/05/17 00:23:42;;;;;;;4.20;3.50;;;11.80;99.90;;;;;;5056728;28;20283;-65
2021/05/17 00:26:09;;;;;;;7.03;3.33;;;11.80;99.90;;;;;;5057387;28;20208;-65
2021/05/17 00:28:37;;;;;;;3.95;3.40;;;11.80;99.90;;;;;;5055721;28;20262;-65
2021/05/17 00:31:04;;;;;;;5.30;3.20;;;11.80;99.90;;;;;;5057149;28;20206;-66
2021/05/17 00:33:31;;;;;;;3.92;3.25;;;11.80;99.90;;;;;;5055513;28;20231;-65
2021/05/17 00:35:58;;;;;;;4.10;3.67;;;11.70;99.90;;;;;;5056901;28;20519;-65
2021/05/17 00:38:26;;;;;;;6.05;3.75;;;11.60;99.90;;;;;;5057289;28;20524;-65
2021/05/17 00:40:53;;;;;;;4.00;3.22;;;11.50;99.90;;;;;;5057392;28;20568;-64
2021/05/17 00:43:27;;;;;;;4.82;3.55;;;11.60;99.90;;;;;;5056612;28;20517;-65
2021/05/17 00:45:55;;;;;;;3.50;3.15;;;11.60;99.90;;;;;;5057788;28;20210;-66
2021/05/17 00:48:22;;;;;;;3.08;2.67;;;11.50;99.90;;;;;;5056783;28;20232;-66
2021/05/17 00:50:50;;;;;;;4.20;2.58;;;11.60;99.90;;;;;;5056408;28;20309;-65
2021/05/17 00:53:18;;;;;;;4.55;3.20;;;11.60;99.90;;;;;;5057819;28;20226;-64
2021/05/17 00:55:45;;;;;;;5.47;3.83;;;11.40;99.90;;;;;;5056240;28;20205;-65
2021/05/17 00:58:12;;;;;;;5.65;2.78;;;11.60;99.90;;;;;;5056913;28;20283;-64
2021/05/17 01:00:39;;;;;;;4.22;3.05;;;11.60;99.90;;;;;;5054081;28;20252;-66
2021/05/17 01:03:09;;;;;;;4.55;3.22;;;11.60;99.90;;;;;;5056263;28;20313;-65
2021/05/17 01:05:37;;;;;;;3.78;2.20;;;11.60;99.90;;;;;;5054512;28;20207;-65
2021/05/17 01:08:05;;;;;;;5.63;3.38;;;11.50;99.90;;;;;;5057611;28;20206;-65
2021/05/17 01:10:41;;;;;;;2.63;2.25;;;11.50;99.90;;;;;;5055461;28;20207;-65
2021/05/17 01:13:08;;;;;;;6.00;2.92;;;11.40;99.90;;;;;;5056790;28;20226;-66
2021/05/17 01:15:39;;;;;;;4.03;3.20;;;11.50;99.90;;;;;;5055854;28;20539;-65
2021/05/17 01:18:07;;;;;;;4.55;2.30;;;11.60;99.90;;;;;;5056118;28;20210;-65
2021/05/17 01:20:34;;;;;;;7.55;3.05;;;11.50;99.90;;;;;;5056554;28;20261;-65
2021/05/17 01:25:57;;;;;;;5.30;2.88;;;11.50;99.90;;;;;;5056638;28;20203;-66
2021/05/17 01:28:27;;;;;;;3.10;2.80;;;11.50;99.90;;;;;;5055128;28;20212;-65
2021/05/17 01:31:00;;;;;;;2.60;2.40;;;11.50;99.90;;;;;;5056473;28;20229;-65
2021/05/17 01:33:31;;;;;;;4.10;2.95;;;11.70;99.90;;;;;;5055403;28;20750;-65
2021/05/17 01:36:00;;;;;;;2.42;2.05;;;11.90;99.90;;;;;;5055490;28;20299;-65
2021/05/17 01:38:28;;;;;;;3.70;3.28;;;11.70;99.90;;;;;;5054208;28;20207;-66
2021/05/17 01:40:57;;;;;;;3.28;2.13;;;11.70;99.90;;;;;;5054219;28;20239;-65
2021/05/17 01:43:24;;;;;;;4.25;2.75;;;11.60;99.90;;;;;;5055497;28;20249;-65
2021/05/17 01:45:52;;;;;;;2.80;2.28;;;11.50;99.90;;;;;;5054784;28;20207;-65
2021/05/17 01:48:24;;;;;;;2.90;2.42;;;11.40;99.90;;;;;;5058452;28;20411;-66
2021/05/17 01:50:52;;;;;;;3.70;2.47;;;11.20;99.90;;;;;;5060268;28;20217;-65
2021/05/17 01:53:19;;;;;;;2.70;2.47;;;11.30;99.90;;;;;;5057606;28;20321;-64
2021/05/17 01:55:48;;;;;;;4.20;2.40;;;11.20;99.90;;;;;;5059617;28;20225;-66
2021/05/17 01:58:23;;;;;;;3.20;2.80;;;11.20;99.90;;;;;;5060350;28;20205;-65
2021/05/17 02:00:51;;;;;;;4.05;2.80;;;10.90;99.90;;;;;;5060922;28;20218;-66
2021/05/17 02:03:18;;;;;;;2.97;2.67;;;10.90;99.90;;;;;;5055107;28;20225;-65
2021/05/17 02:05:47;;;;;;;3.50;2.58;;;10.80;99.90;;;;;;5054196;28;20206;-65
2021/05/17 02:08:17;;;;;;;2.50;2.30;;;10.80;99.90;;;;;;5058863;28;20209;-65
2021/05/17 02:10:45;;;;;;;3.67;3.08;;;10.80;99.90;;;;;;5058973;28;20210;-65
2021/05/17 02:13:22;;;;;;;3.05;2.65;;;10.70;99.90;;;;;;5059544;28;20252;-65
2021/05/17 02:15:49;;;;;;;2.60;2.15;;;10.80;99.90;;;;;;5059853;28;20210;-65
2021/05/17 02:18:17;;;;;;;5.43;3.92;;;10.80;99.90;;;;;;5059878;28;20205;-66
2021/05/17 02:20:45;;;;;;;6.15;2.40;;;10.80;99.90;;;;;;5056641;28;20206;-65
2021/05/17 02:23:15;;;;;;;2.17;1.98;;;10.80;99.90;;;;;;5057350;28;20210;-65
2021/05/17 02:25:47;;;;;;;2.22;1.85;;;10.60;99.90;;;;;;5057643;28;20543;-67
2021/05/17 02:28:16;;;;;;;4.32;2.50;;;10.50;99.90;;;;;;5059305;28;20260;-65
2021/05/17 02:30:45;;;;;;;2.53;1.85;;;10.40;99.90;;;;;;5057202;28;20241;-65
2021/05/17 02:33:13;;;;;;;2.25;1.70;;;10.40;99.90;;;;;;5089457;28;20238;-65
2021/05/17 02:35:41;;;;;;;5.43;2.15;;;10.30;99.90;;;;;;5059779;28;20205;-65
2021/05/17 02:38:09;;;;;;;1.98;1.88;;;10.30;99.90;;;;;;5057899;28;20207;-66
2021/05/17 02:40:36;;;;;;;3.03;2.10;;;10.50;99.90;;;;;;5059667;28;20248;-65
2021/05/17 02:43:08;;;;;;;1.70;1.60;;;10.40;99.90;;;;;;5059077;28;20217;-65
2021/05/17 02:45:37;;;;;;;1.80;1.70;;;10.40;99.90;;;;;;5059382;28;20211;-65
2021/05/17 02:48:06;;;;;;;2.40;1.48;;;10.20;99.90;;;;;;5059785;28;20220;-65
2021/05/17 02:50:36;;;;;;;1.98;1.35;;;10.40;99.90;;;;;;5059779;28;20423;-65
2021/05/17 02:53:38;;;;;;;2.30;1.73;;;10.30;99.90;;;;;;5055478;28;20230;-65
2021/05/17 02:56:16;;;;;;;1.40;1.30;;;10.20;99.90;;;;;;5060185;28;20194;-65
2021/05/17 02:58:45;;;;;;;3.05;1.27;;;10.40;99.90;;;;;;5059724;28;20231;-65
2021/05/17 03:01:20;;;;;;;1.65;1.40;;;10.50;99.90;;;;;;5057659;28;20408;-65
2021/05/17 03:03:50;;;;;;;7.13;1.40;;;10.50;99.90;;;;;;5060284;28;20214;-65
2021/05/17 03:06:31;;;;;;;1.20;1.20;;;10.50;99.90;;;;;;5054350;28;20209;-65
2021/05/17 03:09:09;;;;;;;1.73;1.63;;;10.40;99.90;;;;;;5059968;28;20224;-67
2021/05/17 03:11:46;;;;;;;6.43;1.35;;;10.70;99.90;;;;;;5055909;28;20256;-66
2021/05/17 03:14:16;;;;;;;1.75;1.20;;;10.60;99.90;;;;;;5090227;28;20587;-64
2021/05/17 03:16:51;;;;;;;1.17;1.08;;;10.70;99.90;;;;;;5058961;28;20267;-65
2021/05/17 03:19:20;;;;;;;3.38;1.23;;;10.60;99.90;;;;;;5059509;28;20202;-65
2021/05/17 03:21:52;;;;;;;1.50;1.38;;;10.60;99.90;;;;;;5055003;28;20213;-65
2021/05/17 03:24:20;;;;;;;1.88;1.60;;;10.70;99.90;;;;;;5057093;28;20213;-65
2021/05/17 03:26:49;;;;;;;2.70;1.42;;;10.80;99.90;;;;;;5056655;28;20282;-65
2021/05/17 03:29:16;;;;;;;2.10;1.60;;;10.90;99.90;;;;;;5058315;28;20238;-65
2021/05/17 03:31:43;;;;;;;1.30;1.20;;;11.00;99.90;;;;;;5057377;28;20205;-66
2021/05/17 03:34:10;;;;;;;1.75;1.65;;;11.00;99.90;;;;;;5058999;28;20234;-64
2021/05/17 03:36:39;;;;;;;2.20;1.48;;;11.00;99.90;;;;;;5054891;28;20235;-64
2021/05/17 03:39:06;;;;;;;3.83;1.60;;;11.10;99.90;;;;;;5058786;28;20210;-66
2021/05/17 03:41:33;;;;;;;1.13;1.00;;;11.10;99.90;;;;;;5057615;28;20210;-64
2021/05/17 03:44:00;;;;;;;1.42;1.33;;;11.00;99.90;;;;;;5057445;28;20213;-65
2021/05/17 03:46:27;;;;;;;2.20;1.80;;;11.00;99.90;;;;;;5057001;28;20259;-65
2021/05/17 03:48:58;;;;;;;1.48;1.38;;;11.20;99.90;;;;;;5056026;28;20203;-65
2021/05/17 03:51:25;;;;;;;2.53;1.20;;;11.30;99.90;;;;;;5055806;28;20558;-65
2021/05/17 03:53:52;;;;;;;1.70;1.60;;;11.20;99.90;;;;;;5055085;28;20237;-65
2021/05/17 03:56:19;;;;;;;2.03;1.52;;;11.30;99.90;;;;;;5057210;28;20263;-67
2021/05/17 03:58:46;;;;;;;2.10;2.00;;;11.20;99.90;;;;;;5057280;28;20237;-65
2021/05/17 04:01:13;;;;;;;1.52;1.40;;;11.10;99.90;;;;;;5057434;28;20230;-66
2021/05/17 04:03:40;;;;;;;1.30;1.10;;;11.70;99.90;;;;;;5058090;28;20218;-65
2021/05/17 04:06:20;;;;;;;2.22;2.08;;;11.90;99.90;;;;;;5058262;28;20211;-65
2021/05/17 04:14:18;;;;;;;2.65;1.38;;;11.90;99.90;;;;;;5056836;28;20226;-66
2021/05/17 04:16:45;;;;;;;1.50;1.40;;;12.10;99.90;;;;;;5058282;28;20501;-65
2021/05/17 04:19:13;;;;;;;3.17;1.40;;;12.30;99.90;;;;;;5055489;28;20245;-65
2021/05/17 04:21:40;;;;;;;1.02;0.85;;;12.60;99.90;;;;;;5055015;28;20456;-65
2021/05/17 04:24:08;;;;;;;1.30;1.20;;;12.90;99.90;;;;;;5055897;28;20230;-65
2021/05/17 04:26:35;;;;;;;2.80;1.40;;;13.20;99.90;;;;;;5086513;28;20220;-65
2021/05/17 04:29:02;;;;;;;1.80;1.50;;;13.50;99.90;;;;;;5057572;28;20230;-66
2021/05/17 04:31:29;;;;;;;15.43;8.68;;;13.80;99.90;;;;;;5056165;28;20518;-67
2021/05/17 04:33:56;;;;;;;3.38;1.30;;;13.70;99.90;;;;;;5057681;28;20227;-67
2021/05/17 04:36:23;;;;;;;3.13;1.23;;;13.80;99.90;;;;;;5053887;28;20269;-66
2021/05/17 04:38:51;;;;;;;2.03;1.08;;;14.00;99.90;;;;;;5055958;28;20238;-66
2021/05/17 04:41:18;;;;;;;1.20;1.10;;;14.20;99.90;;;;;;5056233;28;20203;-65
2021/05/17 04:43:45;;;;;;;2.60;1.10;;;14.40;99.90;;;;;;5055080;28;20208;-65
2021/05/17 04:46:12;;;;;;;3.83;2.05;;;14.70;99.90;;;;;;5057696;28;20648;-66
2021/05/17 04:48:49;;;;;;;1.35;1.10;;;14.90;99.90;;;;;;5056647;28;20200;-65
2021/05/17 04:51:21;;;;;;;3.95;1.25;;;14.90;99.90;;;;;;5054690;28;20253;-67
2021/05/17 04:53:49;;;;;;;1.40;1.30;;;15.00;99.90;;;;;;5053526;28;20237;-67
2021/05/17 04:56:17;;;;;;;2.63;1.23;;;15.30;99.90;;;;;;5055635;28;20213;-66
2021/05/17 04:58:44;;;;;;;2.45;1.48;;;15.40;99.90;;;;;;5056890;28;20727;-67
2021/05/17 05:01:11;;;;;;;6.70;1.60;;;15.40;99.90;;;;;;5055305;28;20204;-66
2021/05/17 05:03:38;;;;;;;2.35;1.35;;;15.60;99.90;;;;;;5088990;28;20622;-67
2021/05/17 05:06:05;;;;;;;4.53;2.22;;;15.70;99.70;;;;;;5054334;28;20231;-66
2021/05/17 05:08:32;;;;;;;1.40;1.30;;;15.60;99.90;;;;;;5057163;28;20203;-66
2021/05/17 05:11:00;;;;;;;3.45;2.75;;;15.50;99.80;;;;;;5056316;28;20208;-65
2021/05/17 05:13:27;;;;;;;2.53;2.25;;;15.60;99.40;;;;;;5057076;28;20241;-67
2021/05/17 05:15:54;;;;;;;2.73;1.50;;;15.80;99.30;;;;;;5056455;28;20211;-66
2021/05/17 05:18:21;;;;;;;3.00;2.10;;;15.70;99.20;;;;;;5056239;28;20628;-65
2021/05/17 05:20:49;;;;;;;3.50;1.63;;;15.80;99.30;;;;;;5053331;28;20206;-66
2021/05/17 05:23:17;;;;;;;2.55;1.88;;;15.80;98.80;;;;;;5057241;28;20222;-67
2021/05/17 05:28:25;;;;;;;3.05;2.15;;;15.50;99.60;;;;;;5057733;28;20443;-68
2021/05/17 05:31:03;;;;;;;3.40;1.83;;;15.50;99.90;;;;;;5060243;28;20247;-67
2021/05/17 05:33:30;;;;;;;2.53;1.70;;;15.70;99.50;;;;;;5059251;28;20228;-68
2021/05/17 05:35:58;;;;;;;2.47;2.27;;;16.00;99.10;;;;;;5059622;28;20495;-65
2021/05/17 05:38:25;;;;;;;4.67;3.50;;;16.20;99.10;;;;;;5086485;28;20422;-66
2021/05/17 05:40:52;;;;;;;3.73;2.20;;;16.70;98.30;;;;;;5058077;28;20552;-66
2021/05/17 05:43:19;;;;;;;2.17;1.97;;;17.00;97.00;;;;;;5058317;28;20480;-66
2021/05/17 05:45:47;;;;;;;3.97;3.57;;;17.30;97.00;;;;;;5060806;28;20413;-67
2021/05/17 05:48:14;;;;;;;1.90;1.80;;;17.60;96.60;;;;;;5060422;28;20415;-68
2021/05/17 05:50:45;;;;;;;3.50;3.10;;;17.70;95.40;;;;;;5059971;28;20775;-66
2021/05/17 05:53:13;;;;;;;2.23;2.10;;;17.90;95.50;;;;;;5057626;28;20454;-66
2021/05/17 05:55:41;;;;;;;5.30;3.37;;;18.10;94.70;;;;;;5054820;28;20423;-65
2021/05/17 05:58:08;;;;;;;5.33;3.27;;;18.40;95.10;;;;;;5057999;28;20475;-66
2021/05/17 06:00:35;;;;;;;3.47;3.17;;;19.00;93.80;;;;;;5058749;28;20424;-66
2021/05/17 06:03:03;;;;;;;2.90;2.60;;;18.90;94.10;;;;;;5057467;28;20419;-65
2021/05/17 06:05:30;;;;;;;3.60;2.67;;;19.30;92.80;;;;;;5059457;28;20456;-67
2021/05/17 06:07:58;;;;;;;2.50;2.40;;;19.20;92.40;;;;;;5057489;28;20470;-68
2021/05/17 06:10:26;;;;;;;3.73;3.43;;;18.90;92.80;;;;;;5056134;28;20411;-66
2021/05/17 06:12:55;;;;;;;2.67;2.57;;;18.60;94.10;;;;;;5054424;28;20470;-68
2021/05/17 06:15:23;;;;;;;2.60;2.40;;;18.60;93.90;;;;;;5057958;28;20682;-67
2021/05/17 06:17:50;;;;;;;4.40;2.67;;;18.60;94.30;;;;;;5058413;28;20419;-66
2021/05/17 06:20:18;;;;;;;4.70;4.30;;;19.10;94.00;;;;;;5059969;28;20447;-67
2021/05/17 06:22:45;;;;;;;3.40;3.07;;;19.60;92.80;;;;;;5057161;28;20494;-67
2021/05/17 06:25:14;;;;;;;3.83;3.63;;;19.70;92.60;;;;;;5044953;28;20758;-65
2021/05/17 06:27:42;;;;;;;3.40;3.20;;;20.00;92.00;;;;;;5056148;28;20445;-67
2021/05/17 06:30:12;;;;;;;3.47;3.27;;;20.30;91.10;;;;;;5050403;28;20436;-68
2021/05/17 06:32:40;;;;;;;3.50;3.40;;;20.40;91.00;;;;;;5059679;28;20486;-66
2021/05/17 06:35:11;;;;;;;3.80;3.60;;;20.40;91.40;;;;;;5056783;28;20455;-66
2021/05/17 06:37:38;;;;;;;7.30;4.60;;;20.50;91.30;;;;;;5057082;28;20857;-65
2021/05/17 06:40:07;;;;;;;4.27;4.07;;;20.50;90.50;;;;;;5056632;28;20463;-67
2021/05/17 06:42:34;;;;;;;12.80;4.23;;;21.20;90.00;;;;;;5059416;28;20421;-67
2021/05/17 06:45:02;;;;;;;4.43;4.13;;;21.90;87.00;;;;;;5058725;28;20461;-65
2021/05/17 06:47:29;;;;;;;5.67;4.83;;;21.20;86.70;;;;;;5057237;28;20418;-65
2021/05/17 06:49:56;;;;;;;4.30;3.90;;;20.40;90.30;;;;;;5057948;28;20426;-65
2021/05/17 06:52:25;;;;;;;9.23;4.60;;;20.00;90.90;;;;;;5058633;28;20436;-66
2021/05/17 06:55:30;;;;;;;3.90;3.60;;;19.80;91.20;;;;;;5056245;28;20456;-66
2021/05/17 06:58:02;;;;;;;4.37;4.17;;;20.20;90.80;;;;;;5054121;28;20418;-67
2021/05/17 07:00:30;;;;;;;4.10;3.90;;;21.90;87.10;;;;;;5056951;28;20798;-66
2021/05/17 07:03:08;;;;;;;4.73;4.53;;;23.20;80.70;;;;;;5057656;28;20420;-66
2021/05/17 07:05:40;;;;;;;5.07;4.87;;;26.30;69.40;;;;;;5059508;28;20403;-65
2021/05/17 07:13:24;;;;;;;5.90;5.60;;;29.80;52.10;;;;;;5057603;28;20433;-67
2021/05/17 07:15:51;;;;;;;6.67;6.30;;;31.00;48.60;;;;;;5058054;28;20650;-67
2021/05/17 07:18:21;;;;;;;7.77;7.37;;;32.00;45.70;;;;;;5054983;28;20462;-67
2021/05/17 07:26:07;;;;;;;6.87;6.67;;;31.80;44.40;;;;;;5057149;28;20530;-67
2021/05/17 07:28:34;;;;;;;7.43;7.13;;;32.50;42.80;;;;;;5058255;28;20461;-67
2021/05/17 07:31:05;;;;;;;7.20;6.90;;;32.20;43.10;;;;;;5057334;28;20415;-66
2021/05/17 07:33:33;;;;;;;8.40;8.00;;;30.40;44.30;;;;;;5056146;28;20449;-68
2021/05/17 07:36:01;;;;;;;7.20;6.90;;;28.50;47.80;;;;;;5054454;28;20841;-67
2021/05/17 07:38:31;;;;;;;7.20;6.60;;;27.70;50.40;;;;;;5057411;28;20444;-67
2021/05/17 07:41:00;;;;;;;6.57;6.37;;;27.20;51.90;;;;;;5055131;28;20439;-66
2021/05/17 07:43:27;;;;;;;6.40;5.90;;;26.80;52.70;;;;;;5054386;28;20445;-67
2021/05/17 07:45:57;;;;;;;6.00;5.70;;;26.60;53.30;;;;;;5052492;28;20442;-67
2021/05/17 07:48:24;;;;;;;6.37;5.90;;;26.10;54.00;;;;;;5054046;28;20832;-68
2021/05/17 07:50:51;;;;;;;5.90;5.40;;;25.70;54.30;;;;;;5052822;28;20720;-68
2021/05/17 07:53:18;;;;;;;6.60;6.20;;;25.10;55.70;;;;;;5059211;28;20755;-68
2021/05/17 07:55:50;;;;;;;6.23;6.03;;;24.90;56.20;;;;;;5054103;28;20476;-67
2021/05/17 07:58:18;;;;;;;8.03;5.90;;;25.00;55.40;;;;;;5058183;28;20446;-66
2021/05/17 08:00:45;;;;;;;9.60;6.70;;;25.50;55.10;;;;;;5057158;28;20825;-67
2021/05/17 08:03:12;;;;;;;6.50;6.17;;;25.70;54.80;;;;;;5053211;28;20453;-67
2021/05/17 08:05:57;;;;;;;5.67;5.47;;;26.00;54.00;;;;;;5055303;28;20449;-65
2021/05/17 08:08:24;;;;;;;6.40;6.10;;;26.00;54.80;;;;;;5056456;28;20631;-67
2021/05/17 08:10:51;;;;;;;6.37;6.07;;;25.90;53.80;;;;;;5055667;28;20456;-69
2021/05/17 08:13:18;;;;;;;5.90;5.67;;;26.00;55.20;;;;;;5056155;28;20421;-67
2021/05/17 08:16:07;;;;;;;5.60;5.40;;;26.00;54.70;;;;;;5054553;28;20609;-70
2021/05/17 08:18:34;;;;;;;6.47;6.07;;;25.50;54.10;;;;;;5054922;28;20451;-67
2021/05/17 08:21:04;;;;;;;5.97;5.70;;;24.60;57.00;;;;;;5058210;28;20630;-68
2021/05/17 08:23:31;;;;;;;6.33;5.83;;;24.20;59.30;;;;;;5056082;28;20423;-68
2021/05/17 08:25:59;;;;;;;5.80;5.50;;;24.20;59.40;;;;;;5057878;28;20515;-67
2021/05/17 08:28:26;;;;;;;5.90;5.70;;;23.90;60.10;;;;;;5057095;28;20449;-67
2021/05/17 08:30:57;;;;;;;6.20;5.90;;;23.90;59.70;;;;;;5058121;28;20415;-68
2021/05/17 08:33:25;;;;;;;5.37;5.17;;;23.50;59.90;;;;;;5055885;28;20482;-68
2021/05/17 08:35:52;;;;;;;5.63;5.27;;;23.60;60.20;;;;;;5057866;28;20466;-66
2021/05/17 08:38:19;;;;;;;5.20;5.00;;;24.00;59.40;;;;;;5057243;28;20487;-67
2021/05/17 08:40:47;;;;;;;5.40;5.20;;;23.80;59.60;;;;;;5057389;28;20829;-67
2021/05/17 08:43:14;;;;;;;5.70;5.50;;;24.10;59.30;;;;;;5044781;28;20723;-67
2021/05/17 08:45:44;;;;;;;5.70;5.50;;;23.50;59.40;;;;;;5055474;28;20435;-68
2021/05/17 08:48:12;;;;;;;5.93;5.53;;;23.20;60.10;;;;;;5058418;28;20419;-68
2021/05/17 08:50:40;;;;;;;6.33;5.83;;;23.00;61.10;;;;;;5056415;28;20491;-69
2021/05/17 08:53:10;;;;;;;5.53;5.20;;;22.80;63.10;;;;;;5057884;28;20426;-67
2021/05/17 08:55:38;;;;;;;6.10;5.70;;;23.30;61.00;;;;;;5057261;28;20472;-66
2021/05/17 08:58:06;;;;;;;5.40;5.20;;;23.40;59.30;;;;;;5058362;28;20448;-67
2021/05/17 09:00:34;;;;;;;5.73;5.43;;;23.50;60.10;;;;;;5056226;28;20449;-67
2021/05/17 09:03:01;;;;;;;5.50;5.30;;;23.70;59.00;;;;;;5057799;28;20467;-67
2021/05/17 09:05:32;;;;;;;5.20;5.00;;;23.20;60.40;;;;;;5055592;28;20447;-68
2021/05/17 09:08:02;;;;;;;5.60;5.40;;;23.00;59.80;;;;;;5052884;28;20467;-67
2021/05/17 09:10:36;;;;;;;5.37;5.10;;;23.30;60.80;;;;;;5053571;28;20508;-67
2021/05/17 09:13:09;;;;;;;6.97;5.70;;;23.50;60.70;;;;;;5056680;28;20741;-70
2021/05/17 09:15:48;;;;;;;5.37;5.00;;;23.40;61.00;;;;;;5056823;28;20455;-67
2021/05/17 09:18:18;;;;;;;5.10;4.83;;;23.50;60.20;;;;;;5055684;28;20726;-67
2021/05/17 09:20:48;;;;;;;5.53;5.33;;;23.90;58.80;;;;;;5057483;28;20448;-67
2021/05/17 09:23:26;;;;;;;5.43;4.97;;;24.20;58.10;;;;;;5056372;28;20498;-67
2021/05/17 09:26:07;;;;;;;5.40;5.10;;;23.80;57.40;;;;;;5057670;28;20445;-67
2021/05/17 09:28:39;;;;;;;5.47;5.17;;;23.60;58.70;;;;;;5039869;28;20794;-67
2021/05/17 09:31:11;;;;;;;5.67;5.47;;;23.80;60.70;;;;;;5049927;28;20416;-68
2021/05/17 09:33:47;;;;;;;6.23;5.60;;;24.50;59.30;;;;;;5052387;28;20431;-69
2021/05/17 09:36:39;;;;;;;5.80;5.60;;;25.10;58.10;;;;;;5039972;28;20466;-67
2021/05/17 09:39:17;;;;;;;5.70;5.40;;;25.30;58.10;;;;;;5056775;28;20464;-67
2021/05/17 09:41:47;;;;;;;5.70;5.37;;;25.10;57.00;;;;;;5057827;28;20763;-68
2021/05/17 09:44:16;;;;;;;5.50;5.30;;;25.20;56.90;;;;;;5057831;28;20805;-68
2021/05/17 09:47:05;;;;;;;5.17;4.97;;;25.20;56.40;;;;;;5057823;28;20543;-67
2021/05/17 09:49:38;;;;;;;6.00;5.57;;;25.20;56.10;;;;;;5049368;28;20408;-68
2021/05/17 09:52:08;;;;;;;5.73;5.43;;;24.90;56.70;;;;;;5053325;28;20824;-67
2021/05/17 09:54:51;;;;;;;5.87;5.57;;;24.80;56.60;;;;;;5037434;28;20446;-68
2021/05/17 09:57:23;;;;;;;5.40;5.20;;;24.20;57.60;;;;;;5038246;28;20480;-69
2021/05/17 09:59:53;;;;;;;5.77;5.57;;;23.70;58.40;;;;;;5038010;28;20420;-66
2021/05/17 10:02:35;;;;;;;7.20;4.73;;;23.40;59.60;;;;;;5038166;28;20455;-66
2021/05/17 10:05:13;;;;;;;6.33;4.90;;;23.40;60.00;;;;;;5056756;28;20445;-67
2021/05/17 10:07:41;;;;;;;5.60;4.90;;;23.40;60.40;;;;;;5053472;28;20414;-67
2021/05/17 10:10:09;;;;;;;5.10;4.90;;;23.30;58.70;;;;;;5056884;28;20641;-68
2021/05/17 10:12:38;;;;;;;5.30;5.00;;;23.50;58.20;;;;;;5058845;28;20448;-68
2021/05/17 10:15:09;;;;;;;5.47;4.70;;;23.80;57.80;;;;;;5060197;28;20447;-68
2021/05/17 10:17:37;;;;;;;5.57;5.10;;;23.80;57.30;;;;;;5059974;28;20415;-68
2021/05/17 10:20:10;;;;;;;6.40;5.93;;;23.80;57.20;;;;;;5058287;28;20452;-67
2021/05/17 10:22:37;;;;;;;5.97;5.47;;;23.70;59.80;;;;;;5059656;28;20768;-66
2021/05/17 10:25:07;;;;;;;5.97;5.40;;;23.30;62.40;;;;;;5058079;28;20733;-68
2021/05/17 10:27:45;;;;;;;7.10;5.40;;;22.80;63.80;;;;;;5058512;28;20784;-69
2021/05/17 10:30:14;;;;;;;5.90;5.50;;;22.40;65.10;;;;;;5060127;28;20458;-69
2021/05/17 10:33:02;;;;;;;6.23;5.83;;;22.30;65.30;;;;;;5053158;28;20421;-69
2021/05/17 10:35:50;;;;;;;5.43;5.23;;;22.00;65.60;;;;;;5047773;28;20475;-69
2021/05/17 10:38:23;;;;;;;6.27;5.70;;;21.90;67.10;;;;;;5057696;28;20456;-68
2021/05/17 10:41:03;;;;;;;5.90;5.50;;;21.90;67.80;;;;;;5078373;28;20467;-68
2021/05/17 10:46:39;;;;;;;6.83;6.27;;;22.50;66.20;;;;;;5059896;28;20429;-69
2021/05/17 10:49:21;;;;;;;5.30;5.00;;;22.70;65.70;;;;;;5058537;28;20439;-68
2021/05/17 10:52:10;;;;;;;5.47;5.17;;;22.50;65.80;;;;;;5060145;28;20442;-69
2021/05/17 10:54:41;;;;;;;4.90;4.70;;;22.30;65.50;;;;;;5046812;28;20675;-68
2021/05/17 10:57:20;;;;;;;6.63;6.13;;;22.00;66.40;;;;;;5059287;28;20422;-67
2021/05/17 11:02:39;;;;;;;5.80;5.50;;;21.70;66.90;;;;;;5055112;28;20720;-68
2021/05/17 11:05:19;;;;;;;5.30;5.10;;;21.70;68.40;;;;;;5059115;28;20642;-68
2021/05/17 11:08:01;;;;;;;5.03;4.70;;;21.40;69.00;;;;;;5059271;28;20476;-69
2021/05/17 11:10:33;;;;;;;5.40;5.00;;;21.50;68.00;;;;;;5051786;28;20794;-68
2021/05/17 11:13:05;;;;;;;6.17;5.67;;;21.30;68.70;;;;;;5058968;28;20505;-68
2021/05/17 11:16:02;;;;;;;5.20;4.90;;;21.20;69.50;;;;;;5059721;28;20475;-68
2021/05/17 11:18:32;;;;;;;8.50;4.60;;;21.40;69.30;;;;;;5059615;28;20438;-68
2021/05/17 11:21:21;;;;;;;5.33;4.93;;;21.40;69.00;;;;;;5056987;28;20616;-67
2021/05/17 11:23:54;;;;;;;4.97;4.57;;;21.00;68.00;;;;;;5039820;28;20471;-68
2021/05/17 11:26:23;;;;;;;5.10;4.90;;;20.90;69.20;;;;;;5041788;28;20416;-69
2021/05/17 11:28:51;;;;;;;8.40;6.63;;;21.00;69.80;;;;;;5058839;28;20465;-67
2021/05/17 11:31:35;;;;;;;5.03;4.70;;;21.10;69.80;;;;;;5057771;28;20412;-67
2021/05/17 11:34:03;;;;;;;5.53;5.23;;;21.20;68.90;;;;;;5059340;28;20441;-68
2021/05/17 11:36:50;;;;;;;6.47;5.03;;;20.90;70.50;;;;;;5056488;28;20460;-68
2021/05/17 11:39:31;;;;;;;5.40;5.10;;;21.10;68.80;;;;;;5058639;28;20627;-67
2021/05/17 11:41:58;;;;;;;4.73;4.53;;;21.10;69.50;;;;;;5058214;28;20482;-68
2021/05/17 11:44:39;;;;;;;4.60;4.40;;;21.20;68.30;;;;;;5057861;28;20445;-68
2021/05/17 11:47:08;;;;;;;4.97;4.77;;;21.00;68.90;;;;;;5058982;28;20426;-69
2021/05/17 11:49:44;;;;;;;5.00;4.70;;;21.00;69.70;;;;;;5082372;28;20599;-67
2021/05/17 11:52:14;;;;;;;5.63;5.23;;;21.20;69.50;;;;;;5054110;28;20532;-68
2021/05/17 11:54:51;;;;;;;5.63;5.20;;;21.10;70.70;;;;;;5043237;28;20405;-68
2021/05/17 11:57:25;;;;;;;6.17;4.80;;;21.40;69.90;;;;;;5058231;28;20476;-69
2021/05/17 11:59:53;;;;;;;5.33;4.90;;;21.80;68.20;;;;;;5059393;28;20421;-67
2021/05/17 12:02:21;;;;;;;6.47;5.97;;;22.20;67.30;;;;;;5057495;28;20429;-67
2021/05/17 12:04:48;;;;;;;6.93;5.40;;;22.40;63.30;;;;;;5056813;28;20510;-69
2021/05/17 12:07:18;;;;;;;5.40;5.10;;;22.80;64.60;;;;;;5048324;28;20440;-69
2021/05/17 12:09:51;;;;;;;4.90;4.70;;;22.90;62.90;;;;;;5051513;28;20512;-69
2021/05/17 12:12:22;;;;;;;4.90;4.70;;;22.90;63.00;;;;;;5052927;28;20806;-68
2021/05/17 12:14:55;;;;;;;18.70;4.90;;;22.60;65.10;;;;;;5056358;28;20406;-68
2021/05/17 12:17:34;;;;;;;4.93;4.40;;;22.60;64.20;;;;;;5056540;28;20781;-68
2021/05/17 12:20:10;;;;;;;4.90;4.70;;;22.70;64.70;;;;;;5057112;28;20777;-67
2021/05/17 12:22:44;;;;;;;5.77;5.20;;;23.00;64.20;;;;;;5053953;28;20502;-69
2021/05/17 12:25:17;;;;;;;5.50;5.20;;;22.90;65.50;;;;;;5052923;28;20451;-67
2021/05/17 12:27:46;;;;;;;8.87;5.87;;;22.60;65.10;;;;;;5057068;28;20418;-68
2021/05/17 12:30:24;;;;;;;7.13;6.00;;;22.50;66.00;;;;;;5054581;28;20440;-67
2021/05/17 12:32:54;;;;;;;6.57;5.10;;;22.50;64.70;;;;;;5054560;28;20416;-68
2021/05/17 12:35:36;;;;;;;8.20;5.27;;;22.30;64.70;;;;;;5056513;28;20496;-67
2021/05/17 12:38:06;;;;;;;5.10;4.90;;;22.40;64.70;;;;;;5083914;28;20619;-69
2021/05/17 12:40:40;;;;;;;5.30;4.80;;;22.40;63.40;;;;;;5056130;28;20446;-68
2021/05/17 12:43:12;;;;;;;5.53;5.23;;;22.80;63.90;;;;;;5054714;28;20413;-68
2021/05/17 12:45:48;;;;;;;5.00;4.80;;;22.90;62.50;;;;;;5056954;28;20417;-68
2021/05/17 12:48:39;;;;;;;4.73;4.53;;;23.00;61.20;;;;;;5055380;28;20443;-68
2021/05/17 12:51:26;;;;;;;6.53;5.73;;;23.10;61.20;;;;;;5056110;28;20618;-67
2021/05/17 12:54:15;;;;;;;5.90;5.50;;;22.50;63.50;;;;;;5052624;28;20478;-68
2021/05/17 12:56:42;;;;;;;7.17;5.20;;;22.40;64.60;;;;;;5044591;28;20502;-68
2021/05/17 12:59:09;;;;;;;5.60;5.30;;;22.70;63.00;;;;;;5050627;28;20436;-68
2021/05/17 13:01:38;;;;;;;6.07;5.50;;;23.00;61.90;;;;;;5054056;28;20455;-69
2021/05/17 13:04:07;;;;;;;6.07;5.57;;;23.10;60.90;;;;;;5055336;28;20634;-69
2021/05/17 13:06:34;;;;;;;6.17;5.77;;;23.10;59.30;;;;;;5053493;28;20422;-69
2021/05/17 13:09:18;;;;;;;5.23;4.93;;;23.00;60.30;;;;;;5048265;28;20668;-68
2021/05/17 13:11:55;;;;;;;5.70;5.23;;;23.00;59.00;;;;;;5051313;28;20483;-68
2021/05/17 13:14:23;;;;;;;5.10;4.90;;;23.20;57.80;;;;;;5055382;28;20522;-68
2021/05/17 13:16:54;;;;;;;8.50;5.70;;;23.20;57.00;;;;;;5049854;28;20452;-68
2021/05/17 13:33:21;;;;;;;6.37;5.87;;;22.80;61.20;;;;;;5053735;28;20666;-68
2021/05/17 13:35:50;;;;;;;5.40;5.00;;;22.80;58.80;;;;;;5054345;28;20512;-69
2021/05/17 13:38:24;;;;;;;7.27;6.77;;;23.20;58.90;;;;;;5055484;28;20448;-68
2021/05/17 13:40:52;;;;;;;11.97;8.03;;;23.10;58.70;;;;;;5055123;28;20477;-68
2021/05/17 13:43:19;;;;;;;7.47;6.57;;;23.10;59.50;;;;;;5056123;28;20774;-68
2021/05/17 13:45:47;;;;;;;6.67;6.27;;;23.20;59.00;;;;;;5055841;28;20968;-70